sensor_id;sensor_type;location;lat;lon;timestamp;pressure;altitude;pressure_sealevel;temperature;humidity
73974;BME280;62336;-26.094;27.994;2022-12-17T04:58:19;84340.13;;;31.22;24.81
73974;BME280;62336;-26.094;27.994;2022-12-17T05:00:45;84341.65;;;30.52;25.16
73974;BME280;62336;-26.094;27.994;2022-12-17T05:03:12;84340.96;;;30.40;25.90
73974;BME280;62336;-26.094;27.994;2022-12-17T05:05:36;84337.45;;;29.97;26.04
73974;BME280;62336;-26.094;27.994;2022-12-17T05:08:02;84336.87;;;30.07;26.42
73974;BME280;62336;-26.094;27.994;2022-12-17T05:10:28;84334.89;;;30.55;25.61
73974;BME280;62336;-26.094;27.994;2022-12-17T05:12:56;84332.34;;;30.35;25.92
73974;BME280;62336;-26.094;27.994;2022-12-17T05:15:20;84328.45;;;30.45;25.98
73974;BME280;62336;-26.094;27.994;2022-12-17T05:17:45;84327.96;;;30.33;26.17
73974;BME280;62336;-26.094;27.994;2022-12-17T05:20:11;84322.43;;;30.34;26.14
73974;BME280;62336;-26.094;27.994;2022-12-17T05:22:37;84322.73;;;30.38;26.59
73974;BME280;62336;-26.094;27.994;2022-12-17T05:25:02;84318.31;;;30.55;26.07
73974;BME280;62336;-26.094;27.994;2022-12-17T05:27:28;84318.55;;;30.66;25.71
73974;BME280;62336;-26.094;27.994;2022-12-17T05:29:54;84317.06;;;31.25;24.52
73974;BME280;62336;-26.094;27.994;2022-12-17T05:32:19;84313.59;;;31.10;24.82
73974;BME280;62336;-26.094;27.994;2022-12-17T05:34:45;84310.55;;;30.86;24.57
73974;BME280;62336;-26.094;27.994;2022-12-17T05:37:11;84314.07;;;31.09;24.62
73974;BME280;62336;-26.094;27.994;2022-12-17T05:39:36;84315.18;;;30.74;25.03
73974;BME280;62336;-26.094;27.994;2022-12-17T05:42:02;84314.10;;;30.58;24.69
73974;BME280;62336;-26.094;27.994;2022-12-17T05:44:28;84319.88;;;31.38;24.73
73974;BME280;62336;-26.094;27.994;2022-12-17T05:46:54;84322.06;;;30.87;24.11
73974;BME280;62336;-26.094;27.994;2022-12-17T05:49:20;84319.21;;;30.74;23.98
73974;BME280;62336;-26.094;27.994;2022-12-17T05:51:46;84322.27;;;31.02;23.68
73974;BME280;62336;-26.094;27.994;2022-12-17T05:54:11;84323.13;;;31.34;23.90
73974;BME280;62336;-26.094;27.994;2022-12-17T05:56:37;84318.72;;;31.08;24.19
73974;BME280;62336;-26.094;27.994;2022-12-17T05:59:03;84315.75;;;31.77;22.87
73974;BME280;62336;-26.094;27.994;2022-12-17T06:01:29;84315.81;;;32.37;22.63
73974;BME280;62336;-26.094;27.994;2022-12-17T06:03:55;84313.44;;;31.92;22.39
73974;BME280;62336;-26.094;27.994;2022-12-17T06:06:20;84317.13;;;32.80;21.86
73974;BME280;62336;-26.094;27.994;2022-12-17T06:08:46;84319.56;;;33.16;21.11
73974;BME280;62336;-26.094;27.994;2022-12-17T06:11:12;84318.90;;;33.84;20.45
73974;BME280;62336;-26.094;27.994;2022-12-17T06:13:38;84319.31;;;33.21;20.46
73974;BME280;62336;-26.094;27.994;2022-12-17T06:16:04;84319.24;;;33.46;20.38
73974;BME280;62336;-26.094;27.994;2022-12-17T06:18:29;84317.21;;;33.91;19.89
73974;BME280;62336;-26.094;27.994;2022-12-17T06:20:55;84316.02;;;33.49;20.50
73974;BME280;62336;-26.094;27.994;2022-12-17T06:23:21;84318.41;;;33.49;21.36
73974;BME280;62336;-26.094;27.994;2022-12-17T06:25:47;84323.65;;;33.94;20.71
73974;BME280;62336;-26.094;27.994;2022-12-17T06:28:14;84324.20;;;34.39;20.51
73974;BME280;62336;-26.094;27.994;2022-12-17T06:30:39;84326.23;;;32.84;21.40
73974;BME280;62336;-26.094;27.994;2022-12-17T06:33:05;84322.93;;;34.23;20.03
73974;BME280;62336;-26.094;27.994;2022-12-17T06:35:31;84323.89;;;33.63;20.76
73974;BME280;62336;-26.094;27.994;2022-12-17T06:38:00;84322.48;;;33.13;20.97
73974;BME280;62336;-26.094;27.994;2022-12-17T06:40:22;84322.90;;;33.95;19.96
73974;BME280;62336;-26.094;27.994;2022-12-17T06:42:52;84321.95;;;33.44;21.25
73974;BME280;62336;-26.094;27.994;2022-12-17T06:45:15;84317.72;;;33.57;20.20
73974;BME280;62336;-26.094;27.994;2022-12-17T06:47:39;84314.95;;;33.74;20.31
73974;BME280;62336;-26.094;27.994;2022-12-17T06:50:07;84311.77;;;33.66;20.27
73974;BME280;62336;-26.094;27.994;2022-12-17T06:52:31;84311.34;;;33.38;20.08
73974;BME280;62336;-26.094;27.994;2022-12-17T06:54:57;84307.60;;;33.21;20.20
73974;BME280;62336;-26.094;27.994;2022-12-17T06:57:23;84305.47;;;33.35;19.23
73974;BME280;62336;-26.094;27.994;2022-12-17T06:59:48;84303.26;;;34.31;18.92
73974;BME280;62336;-26.094;27.994;2022-12-17T07:02:15;84300.55;;;34.12;18.77
73974;BME280;62336;-26.094;27.994;2022-12-17T07:04:40;84299.09;;;34.39;18.76
73974;BME280;62336;-26.094;27.994;2022-12-17T07:07:06;84295.12;;;34.03;19.37
73974;BME280;62336;-26.094;27.994;2022-12-17T07:09:32;84297.10;;;34.71;19.37
73974;BME280;62336;-26.094;27.994;2022-12-17T07:11:58;84295.23;;;34.99;19.18
73974;BME280;62336;-26.094;27.994;2022-12-17T07:14:23;84293.06;;;35.05;19.33
73974;BME280;62336;-26.094;27.994;2022-12-17T07:16:49;84291.67;;;34.44;18.85
73974;BME280;62336;-26.094;27.994;2022-12-17T07:19:15;84288.02;;;35.26;19.15
73974;BME280;62336;-26.094;27.994;2022-12-17T07:21:40;84289.88;;;35.25;18.27
73974;BME280;62336;-26.094;27.994;2022-12-17T07:24:07;84292.24;;;35.63;19.49
73974;BME280;62336;-26.094;27.994;2022-12-17T07:26:32;84293.17;;;34.57;18.52
73974;BME280;62336;-26.094;27.994;2022-12-17T07:28:57;84297.62;;;34.04;19.18
73974;BME280;62336;-26.094;27.994;2022-12-17T07:31:23;84297.75;;;34.09;19.73
73974;BME280;62336;-26.094;27.994;2022-12-17T07:33:50;84294.61;;;33.66;19.39
73974;BME280;62336;-26.094;27.994;2022-12-17T07:36:16;84290.21;;;33.83;19.00
73974;BME280;62336;-26.094;27.994;2022-12-17T07:38:41;84288.79;;;34.97;19.32
73974;BME280;62336;-26.094;27.994;2022-12-17T07:41:06;84288.49;;;34.75;20.97
73974;BME280;62336;-26.094;27.994;2022-12-17T07:43:32;84291.45;;;34.89;20.64
73974;BME280;62336;-26.094;27.994;2022-12-17T07:45:58;84288.65;;;33.65;19.00
73974;BME280;62336;-26.094;27.994;2022-12-17T07:48:24;84286.25;;;34.34;19.46
73974;BME280;62336;-26.094;27.994;2022-12-17T07:50:50;84287.86;;;34.47;19.83
73974;BME280;62336;-26.094;27.994;2022-12-17T07:53:16;84287.65;;;34.41;19.41
73974;BME280;62336;-26.094;27.994;2022-12-17T07:55:42;84286.21;;;34.63;19.60
73974;BME280;62336;-26.094;27.994;2022-12-17T07:58:10;84281.46;;;34.81;19.95
73974;BME280;62336;-26.094;27.994;2022-12-17T08:00:33;84286.55;;;34.54;20.83
73974;BME280;62336;-26.094;27.994;2022-12-17T08:02:59;84285.22;;;35.01;20.75
73974;BME280;62336;-26.094;27.994;2022-12-17T08:06:24;84283.85;;;32.92;22.59
73974;BME280;62336;-26.094;27.994;2022-12-17T08:08:49;84283.11;;;32.97;22.92
73974;BME280;62336;-26.094;27.994;2022-12-17T08:11:15;84281.37;;;33.09;22.26
73974;BME280;62336;-26.094;27.994;2022-12-17T08:13:41;84278.60;;;33.55;21.36
73974;BME280;62336;-26.094;27.994;2022-12-17T08:16:07;84283.95;;;34.15;21.42
73974;BME280;62336;-26.094;27.994;2022-12-17T08:18:32;84284.23;;;33.37;21.33
73974;BME280;62336;-26.094;27.994;2022-12-17T08:20:58;84283.52;;;33.55;21.14
73974;BME280;62336;-26.094;27.994;2022-12-17T08:23:24;84278.91;;;34.05;20.83
73974;BME280;62336;-26.094;27.994;2022-12-17T08:25:50;84274.83;;;34.28;20.00
73974;BME280;62336;-26.094;27.994;2022-12-17T08:28:16;84277.83;;;34.27;21.82
73974;BME280;62336;-26.094;27.994;2022-12-17T08:30:42;84275.93;;;33.81;20.27
73974;BME280;62336;-26.094;27.994;2022-12-17T08:33:07;84279.22;;;33.81;20.60
73974;BME280;62336;-26.094;27.994;2022-12-17T08:35:33;84275.40;;;34.65;20.30
73974;BME280;62336;-26.094;27.994;2022-12-17T08:38:01;84271.31;;;34.75;20.32
73974;BME280;62336;-26.094;27.994;2022-12-17T08:40:25;84271.91;;;34.37;20.97
73974;BME280;62336;-26.094;27.994;2022-12-17T08:42:55;84265.77;;;34.49;20.35
73974;BME280;62336;-26.094;27.994;2022-12-17T08:45:17;84265.87;;;34.96;20.10
73974;BME280;62336;-26.094;27.994;2022-12-17T08:47:42;84267.01;;;35.28;21.01
73974;BME280;62336;-26.094;27.994;2022-12-17T08:50:08;84266.85;;;35.70;21.30
73974;BME280;62336;-26.094;27.994;2022-12-17T08:52:34;84266.98;;;36.15;19.99
73974;BME280;62336;-26.094;27.994;2022-12-17T08:55:00;84265.52;;;36.40;20.31
73974;BME280;62336;-26.094;27.994;2022-12-17T08:57:25;84262.01;;;36.70;19.75
73974;BME280;62336;-26.094;27.994;2022-12-17T08:59:51;84262.25;;;36.61;19.55
73974;BME280;62336;-26.094;27.994;2022-12-17T09:02:17;84260.52;;;37.06;18.94
73974;BME280;62336;-26.094;27.994;2022-12-17T09:04:43;84256.73;;;36.81;18.69
73974;BME280;62336;-26.094;27.994;2022-12-17T09:07:08;84252.28;;;36.73;18.55
73974;BME280;62336;-26.094;27.994;2022-12-17T09:09:34;84253.53;;;36.99;18.80
73974;BME280;62336;-26.094;27.994;2022-12-17T09:12:00;84251.06;;;36.56;18.95
73974;BME280;62336;-26.094;27.994;2022-12-17T09:14:26;84254.64;;;36.49;19.94
73974;BME280;62336;-26.094;27.994;2022-12-17T09:16:51;84253.93;;;36.13;18.85
73974;BME280;62336;-26.094;27.994;2022-12-17T09:19:17;84249.52;;;36.19;18.39
73974;BME280;62336;-26.094;27.994;2022-12-17T09:21:43;84249.58;;;35.95;19.65
73974;BME280;62336;-26.094;27.994;2022-12-17T09:24:10;84252.03;;;35.68;20.42
73974;BME280;62336;-26.094;27.994;2022-12-17T09:26:35;84251.83;;;35.42;19.75
73974;BME280;62336;-26.094;27.994;2022-12-17T09:29:01;84257.13;;;35.12;20.73
73974;BME280;62336;-26.094;27.994;2022-12-17T09:31:28;84259.04;;;34.79;20.15
73974;BME280;62336;-26.094;27.994;2022-12-17T09:33:52;84261.80;;;34.81;21.14
73974;BME280;62336;-26.094;27.994;2022-12-17T09:36:19;84261.00;;;34.70;21.06
73974;BME280;62336;-26.094;27.994;2022-12-17T09:38:44;84273.50;;;34.36;21.66
73974;BME280;62336;-26.094;27.994;2022-12-17T09:41:25;84274.01;;;34.22;21.56
73974;BME280;62336;-26.094;27.994;2022-12-17T09:43:42;84279.16;;;33.65;23.24
73974;BME280;62336;-26.094;27.994;2022-12-17T09:46:07;84281.61;;;33.72;24.17
73974;BME280;62336;-26.094;27.994;2022-12-17T09:48:34;84280.04;;;33.36;24.71
73974;BME280;62336;-26.094;27.994;2022-12-17T09:50:53;84274.92;;;33.63;24.78
73974;BME280;62336;-26.094;27.994;2022-12-17T09:53:23;84269.73;;;34.01;25.18
73974;BME280;62336;-26.094;27.994;2022-12-17T09:55:47;84275.26;;;33.67;26.19
73974;BME280;62336;-26.094;27.994;2022-12-17T09:58:18;84268.72;;;33.14;27.01
73974;BME280;62336;-26.094;27.994;2022-12-17T10:00:37;84257.12;;;32.83;26.78
73974;BME280;62336;-26.094;27.994;2022-12-17T10:03:03;84250.95;;;32.85;27.37
73974;BME280;62336;-26.094;27.994;2022-12-17T10:05:30;84244.92;;;33.08;27.69
73974;BME280;62336;-26.094;27.994;2022-12-17T10:07:54;84242.17;;;32.80;28.10
73974;BME280;62336;-26.094;27.994;2022-12-17T10:10:22;84240.98;;;32.16;29.50
73974;BME280;62336;-26.094;27.994;2022-12-17T10:12:46;84238.66;;;33.00;27.28
73974;BME280;62336;-26.094;27.994;2022-12-17T10:15:14;84235.51;;;33.30;27.69
73974;BME280;62336;-26.094;27.994;2022-12-17T10:17:37;84228.12;;;33.13;26.52
73974;BME280;62336;-26.094;27.994;2022-12-17T10:20:13;84222.45;;;33.41;26.11
73974;BME280;62336;-26.094;27.994;2022-12-17T10:22:29;84219.43;;;33.50;25.11
73974;BME280;62336;-26.094;27.994;2022-12-17T10:24:55;84216.69;;;33.59;25.48
73974;BME280;62336;-26.094;27.994;2022-12-17T10:27:21;84211.45;;;33.75;24.66
73974;BME280;62336;-26.094;27.994;2022-12-17T10:29:47;84199.62;;;34.48;24.18
73974;BME280;62336;-26.094;27.994;2022-12-17T10:32:19;84197.61;;;34.32;23.90
73974;BME280;62336;-26.094;27.994;2022-12-17T10:34:39;84196.12;;;34.35;24.38
73974;BME280;62336;-26.094;27.994;2022-12-17T10:37:05;84192.38;;;33.74;23.95
73974;BME280;62336;-26.094;27.994;2022-12-17T10:39:30;84196.65;;;33.40;24.20
73974;BME280;62336;-26.094;27.994;2022-12-17T10:41:56;84197.63;;;33.82;24.22
73974;BME280;62336;-26.094;27.994;2022-12-17T10:44:24;84195.89;;;34.48;23.91
73974;BME280;62336;-26.094;27.994;2022-12-17T10:46:55;84190.44;;;35.13;23.62
73974;BME280;62336;-26.094;27.994;2022-12-17T10:49:15;84189.95;;;34.29;23.65
73974;BME280;62336;-26.094;27.994;2022-12-17T10:51:39;84187.39;;;34.39;23.91
73974;BME280;62336;-26.094;27.994;2022-12-17T10:54:13;84189.95;;;33.53;24.68
73974;BME280;62336;-26.094;27.994;2022-12-17T10:56:30;84191.31;;;33.21;24.75
73974;BME280;62336;-26.094;27.994;2022-12-17T10:58:56;84179.98;;;33.61;23.81
73974;BME280;62336;-26.094;27.994;2022-12-17T11:01:24;84172.39;;;33.80;23.84
73974;BME280;62336;-26.094;27.994;2022-12-17T11:03:50;84166.91;;;34.17;23.45
73974;BME280;62336;-26.094;27.994;2022-12-17T11:06:19;84163.46;;;34.14;23.56
73974;BME280;62336;-26.094;27.994;2022-12-17T11:08:40;84162.29;;;34.25;23.45
73974;BME280;62336;-26.094;27.994;2022-12-17T11:11:08;84161.52;;;33.95;23.63
73974;BME280;62336;-26.094;27.994;2022-12-17T11:13:35;84161.57;;;34.40;23.25
73974;BME280;62336;-26.094;27.994;2022-12-17T11:15:58;84155.45;;;35.29;22.59
73974;BME280;62336;-26.094;27.994;2022-12-17T11:18:28;84151.14;;;34.59;23.12
73974;BME280;62336;-26.094;27.994;2022-12-17T11:20:54;84148.56;;;34.48;24.03
73974;BME280;62336;-26.094;27.994;2022-12-17T11:23:17;84145.78;;;34.24;23.46
73974;BME280;62336;-26.094;27.994;2022-12-17T11:25:44;84144.64;;;34.51;23.48
73974;BME280;62336;-26.094;27.994;2022-12-17T11:28:13;84138.23;;;34.87;22.26
73974;BME280;62336;-26.094;27.994;2022-12-17T11:30:32;84135.46;;;34.69;21.73
73974;BME280;62336;-26.094;27.994;2022-12-17T11:33:06;84133.46;;;35.11;20.90
73974;BME280;62336;-26.094;27.994;2022-12-17T11:35:29;84128.39;;;35.54;19.70
73974;BME280;62336;-26.094;27.994;2022-12-17T11:37:56;84123.00;;;35.81;20.16
73974;BME280;62336;-26.094;27.994;2022-12-17T11:40:20;84120.99;;;35.14;20.36
73974;BME280;62336;-26.094;27.994;2022-12-17T11:42:46;84114.25;;;35.54;21.30
73974;BME280;62336;-26.094;27.994;2022-12-17T11:45:12;84110.47;;;35.71;20.58
73974;BME280;62336;-26.094;27.994;2022-12-17T11:47:37;84109.90;;;35.86;21.18
73974;BME280;62336;-26.094;27.994;2022-12-17T11:50:03;84101.40;;;35.99;20.42
73974;BME280;62336;-26.094;27.994;2022-12-17T11:52:28;84102.80;;;35.83;20.81
73974;BME280;62336;-26.094;27.994;2022-12-17T11:54:54;84099.43;;;35.49;20.14
73974;BME280;62336;-26.094;27.994;2022-12-17T11:57:19;84097.56;;;35.75;19.66
73974;BME280;62336;-26.094;27.994;2022-12-17T11:59:43;84093.14;;;35.65;19.68
73974;BME280;62336;-26.094;27.994;2022-12-17T12:02:13;84088.00;;;36.23;19.26
73974;BME280;62336;-26.094;27.994;2022-12-17T12:04:44;84086.46;;;35.86;20.52
73974;BME280;62336;-26.094;27.994;2022-12-17T12:07:01;84078.84;;;35.54;20.71
73974;BME280;62336;-26.094;27.994;2022-12-17T12:09:29;84075.51;;;35.51;20.69
73974;BME280;62336;-26.094;27.994;2022-12-17T12:11:55;84075.62;;;35.30;21.72
73974;BME280;62336;-26.094;27.994;2022-12-17T12:14:21;84073.67;;;36.10;20.39
73974;BME280;62336;-26.094;27.994;2022-12-17T12:16:44;84074.44;;;35.77;20.34
73974;BME280;62336;-26.094;27.994;2022-12-17T12:19:13;84073.39;;;35.35;20.95
73974;BME280;62336;-26.094;27.994;2022-12-17T12:21:38;84075.87;;;36.13;21.30
73974;BME280;62336;-26.094;27.994;2022-12-17T12:24:07;84076.60;;;35.51;20.33
73974;BME280;62336;-26.094;27.994;2022-12-17T12:26:23;84077.37;;;35.04;20.76
73974;BME280;62336;-26.094;27.994;2022-12-17T12:28:53;84073.79;;;35.49;20.60
73974;BME280;62336;-26.094;27.994;2022-12-17T12:31:20;84071.65;;;35.37;20.25
73974;BME280;62336;-26.094;27.994;2022-12-17T12:32:12;84069.41;;;33.27;20.55
73974;BME280;62336;-26.094;27.994;2022-12-17T12:34:33;84065.52;;;35.90;19.53
73974;BME280;62336;-26.094;27.994;2022-12-17T12:36:59;84060.66;;;35.41;19.82
73974;BME280;62336;-26.094;27.994;2022-12-17T12:39:29;84061.71;;;36.00;19.53
73974;BME280;62336;-26.094;27.994;2022-12-17T12:41:52;84060.52;;;35.87;19.70
73974;BME280;62336;-26.094;27.994;2022-12-17T12:44:20;84056.60;;;36.28;19.67
73974;BME280;62336;-26.094;27.994;2022-12-17T12:46:43;84049.64;;;35.95;19.25
73974;BME280;62336;-26.094;27.994;2022-12-17T12:49:12;84043.62;;;35.68;19.98
73974;BME280;62336;-26.094;27.994;2022-12-17T12:51:34;84037.58;;;35.56;20.54
73974;BME280;62336;-26.094;27.994;2022-12-17T12:53:57;84036.29;;;36.13;19.75
73974;BME280;62336;-26.094;27.994;2022-12-17T12:56:26;84034.18;;;35.77;19.51
73974;BME280;62336;-26.094;27.994;2022-12-17T12:58:48;84027.47;;;35.38;19.64
73974;BME280;62336;-26.094;27.994;2022-12-17T13:01:15;84024.93;;;36.59;19.07
73974;BME280;62336;-26.094;27.994;2022-12-17T13:03:49;84022.95;;;36.94;18.74
73974;BME280;62336;-26.094;27.994;2022-12-17T13:06:06;84022.93;;;36.20;18.94
73974;BME280;62336;-26.094;27.994;2022-12-17T13:08:31;84018.54;;;37.11;18.03
73974;BME280;62336;-26.094;27.994;2022-12-17T13:10:57;84015.11;;;37.05;18.38
73974;BME280;62336;-26.094;27.994;2022-12-17T13:13:29;84009.63;;;37.10;18.21
73974;BME280;62336;-26.094;27.994;2022-12-17T13:15:52;84009.22;;;36.90;18.38
73974;BME280;62336;-26.094;27.994;2022-12-17T13:18:21;84002.76;;;36.85;18.49
73974;BME280;62336;-26.094;27.994;2022-12-17T13:20:40;83999.33;;;37.18;18.11
73974;BME280;62336;-26.094;27.994;2022-12-17T13:23:24;83998.33;;;36.70;17.90
73974;BME280;62336;-26.094;27.994;2022-12-17T13:25:32;84001.34;;;36.71;18.44
73974;BME280;62336;-26.094;27.994;2022-12-17T13:27:58;84006.11;;;35.50;18.99
73974;BME280;62336;-26.094;27.994;2022-12-17T13:30:31;84007.12;;;36.02;18.79
73974;BME280;62336;-26.094;27.994;2022-12-17T13:32:57;84006.41;;;36.07;19.42
73974;BME280;62336;-26.094;27.994;2022-12-17T13:35:23;84003.70;;;36.11;19.15
73974;BME280;62336;-26.094;27.994;2022-12-17T13:37:45;83998.49;;;36.23;19.56
73974;BME280;62336;-26.094;27.994;2022-12-17T13:40:17;83997.84;;;36.50;19.56
73974;BME280;62336;-26.094;27.994;2022-12-17T13:42:35;83992.52;;;37.07;19.42
73974;BME280;62336;-26.094;27.994;2022-12-17T13:44:59;83992.94;;;36.63;19.90
73974;BME280;62336;-26.094;27.994;2022-12-17T13:47:27;83992.91;;;36.20;20.15
73974;BME280;62336;-26.094;27.994;2022-12-17T13:49:52;83988.75;;;35.70;19.80
73974;BME280;62336;-26.094;27.994;2022-12-17T13:52:18;83987.47;;;36.63;19.65
73974;BME280;62336;-26.094;27.994;2022-12-17T13:54:42;83989.64;;;36.43;19.38
73974;BME280;62336;-26.094;27.994;2022-12-17T13:57:11;83987.73;;;36.03;19.83
73974;BME280;62336;-26.094;27.994;2022-12-17T13:59:33;83985.26;;;35.83;20.07
73974;BME280;62336;-26.094;27.994;2022-12-17T14:01:59;83980.49;;;36.54;19.83
73974;BME280;62336;-26.094;27.994;2022-12-17T14:04:26;83980.19;;;36.74;20.28
73974;BME280;62336;-26.094;27.994;2022-12-17T14:06:51;83978.92;;;36.97;19.80
73974;BME280;62336;-26.094;27.994;2022-12-17T14:09:18;83978.00;;;35.98;20.45
73974;BME280;62336;-26.094;27.994;2022-12-17T14:11:42;83979.22;;;36.37;20.03
73974;BME280;62336;-26.094;27.994;2022-12-17T14:14:17;83981.07;;;35.87;20.51
73974;BME280;62336;-26.094;27.994;2022-12-17T14:16:33;83976.95;;;36.06;20.14
73974;BME280;62336;-26.094;27.994;2022-12-17T14:19:00;83977.63;;;36.13;20.70
73974;BME280;62336;-26.094;27.994;2022-12-17T14:21:26;83980.75;;;36.36;20.34
73974;BME280;62336;-26.094;27.994;2022-12-17T14:23:51;83984.44;;;35.97;20.81
73974;BME280;62336;-26.094;27.994;2022-12-17T14:26:17;83986.96;;;36.13;21.14
73974;BME280;62336;-26.094;27.994;2022-12-17T14:28:46;83987.89;;;36.48;20.65
73974;BME280;62336;-26.094;27.994;2022-12-17T14:31:17;83984.80;;;37.22;19.95
73974;BME280;62336;-26.094;27.994;2022-12-17T14:33:36;83983.35;;;36.44;20.25
73974;BME280;62336;-26.094;27.994;2022-12-17T14:36:02;83986.23;;;36.42;20.49
73974;BME280;62336;-26.094;27.994;2022-12-17T14:38:26;83986.16;;;37.03;18.99
73974;BME280;62336;-26.094;27.994;2022-12-17T14:40:52;83986.27;;;36.60;19.35
73974;BME280;62336;-26.094;27.994;2022-12-17T14:43:24;83992.71;;;35.98;20.04
73974;BME280;62336;-26.094;27.994;2022-12-17T14:45:48;83989.38;;;36.08;19.61
73974;BME280;62336;-26.094;27.994;2022-12-17T14:48:15;83991.62;;;36.04;19.95
73974;BME280;62336;-26.094;27.994;2022-12-17T14:50:36;83991.10;;;35.69;20.05
73974;BME280;62336;-26.094;27.994;2022-12-17T14:53:03;83990.30;;;36.71;19.74
73974;BME280;62336;-26.094;27.994;2022-12-17T14:55:30;83993.22;;;35.73;20.01
73974;BME280;62336;-26.094;27.994;2022-12-17T14:58:05;83994.21;;;36.28;19.79
73974;BME280;62336;-26.094;27.994;2022-12-17T15:00:19;83994.00;;;36.38;19.83
73974;BME280;62336;-26.094;27.994;2022-12-17T15:02:48;83989.13;;;36.18;19.83
73974;BME280;62336;-26.094;27.994;2022-12-17T15:05:14;83986.87;;;36.13;19.78
73974;BME280;62336;-26.094;27.994;2022-12-17T15:07:36;83991.08;;;35.95;20.02
73974;BME280;62336;-26.094;27.994;2022-12-17T15:10:08;83990.08;;;36.22;19.82
73974;BME280;62336;-26.094;27.994;2022-12-17T15:12:28;83991.48;;;35.67;20.31
73974;BME280;62336;-26.094;27.994;2022-12-17T15:14:53;83992.81;;;35.60;20.27
73974;BME280;62336;-26.094;27.994;2022-12-17T15:17:20;83994.00;;;35.56;20.35
73974;BME280;62336;-26.094;27.994;2022-12-17T15:19:46;83997.38;;;35.79;20.28
73974;BME280;62336;-26.094;27.994;2022-12-17T15:22:14;83994.91;;;36.29;19.43
73974;BME280;62336;-26.094;27.994;2022-12-17T15:24:37;83993.71;;;36.58;19.47
73974;BME280;62336;-26.094;27.994;2022-12-17T15:27:03;83992.12;;;36.44;20.12
73974;BME280;62336;-26.094;27.994;2022-12-17T15:29:28;83993.29;;;36.08;19.81
73974;BME280;62336;-26.094;27.994;2022-12-17T15:31:55;83988.74;;;36.09;19.91
73974;BME280;62336;-26.094;27.994;2022-12-17T15:34:20;83984.66;;;35.93;19.61
73974;BME280;62336;-26.094;27.994;2022-12-17T15:36:46;83983.32;;;36.16;19.57
73974;BME280;62336;-26.094;27.994;2022-12-17T15:39:12;83987.24;;;35.63;19.69
73974;BME280;62336;-26.094;27.994;2022-12-17T15:41:37;83987.24;;;35.76;19.79
73974;BME280;62336;-26.094;27.994;2022-12-17T15:44:03;83990.11;;;35.56;19.97
73974;BME280;62336;-26.094;27.994;2022-12-17T15:46:28;83995.10;;;35.88;19.43
73974;BME280;62336;-26.094;27.994;2022-12-17T15:48:53;84000.26;;;35.88;19.39
73974;BME280;62336;-26.094;27.994;2022-12-17T15:51:19;84001.37;;;35.58;19.89
73974;BME280;62336;-26.094;27.994;2022-12-17T15:53:45;84000.50;;;35.53;20.11
73974;BME280;62336;-26.094;27.994;2022-12-17T15:56:18;84000.00;;;35.39;19.97
73974;BME280;62336;-26.094;27.994;2022-12-17T15:58:36;84007.73;;;35.66;19.71
73974;BME280;62336;-26.094;27.994;2022-12-17T17:21:53;84127.44;;;16.46;78.02
73974;BME280;62336;-26.094;27.994;2022-12-17T17:24:18;84123.25;;;20.29;59.84
73974;BME280;62336;-26.094;27.994;2022-12-17T17:26:40;84125.98;;;23.52;48.97
73974;BME280;62336;-26.094;27.994;2022-12-17T17:29:06;84127.60;;;26.18;41.26
73974;BME280;62336;-26.094;27.994;2022-12-17T17:31:31;84132.15;;;27.79;36.39
73974;BME280;62336;-26.094;27.994;2022-12-17T17:33:57;84137.01;;;28.59;34.42
73974;BME280;62336;-26.094;27.994;2022-12-17T17:36:24;84134.56;;;29.83;31.80
73974;BME280;62336;-26.094;27.994;2022-12-17T17:38:49;84138.42;;;30.60;29.91
73974;BME280;62336;-26.094;27.994;2022-12-17T17:41:14;84146.08;;;30.94;28.73
73974;BME280;62336;-26.094;27.994;2022-12-17T17:43:38;84148.64;;;31.97;27.72
73974;BME280;62336;-26.094;27.994;2022-12-17T17:46:05;84151.18;;;32.36;27.53
73974;BME280;62336;-26.094;27.994;2022-12-17T17:48:30;84159.44;;;32.30;27.37
73974;BME280;62336;-26.094;27.994;2022-12-17T17:50:57;84166.55;;;32.30;27.11
73974;BME280;62336;-26.094;27.994;2022-12-17T17:53:19;84175.21;;;32.55;26.78
73974;BME280;62336;-26.094;27.994;2022-12-17T17:55:44;84178.95;;;32.90;26.84
73974;BME280;62336;-26.094;27.994;2022-12-17T17:58:13;84181.82;;;33.21;26.58
73974;BME280;62336;-26.094;27.994;2022-12-17T18:00:36;84184.13;;;33.24;26.70
73974;BME280;62336;-26.094;27.994;2022-12-17T18:03:01;84188.19;;;32.88;26.87
73974;BME280;62336;-26.094;27.994;2022-12-17T18:05:28;84189.74;;;33.03;26.82
73974;BME280;62336;-26.094;27.994;2022-12-17T18:07:53;84192.77;;;33.08;27.02
73974;BME280;62336;-26.094;27.994;2022-12-17T18:10:18;84202.28;;;33.43;27.08
73974;BME280;62336;-26.094;27.994;2022-12-17T18:12:44;84216.44;;;32.90;27.25
73974;BME280;62336;-26.094;27.994;2022-12-17T18:15:09;84230.98;;;33.10;27.25
73974;BME280;62336;-26.094;27.994;2022-12-17T18:17:34;84243.86;;;33.27;27.11
73974;BME280;62336;-26.094;27.994;2022-12-17T18:19:59;84249.51;;;33.78;27.18
73974;BME280;62336;-26.094;27.994;2022-12-17T18:22:24;84269.15;;;33.38;27.23
73974;BME280;62336;-26.094;27.994;2022-12-17T18:24:49;84280.97;;;33.14;24.61
73974;BME280;62336;-26.094;27.994;2022-12-17T18:27:16;84292.57;;;32.05;23.70
73974;BME280;62336;-26.094;27.994;2022-12-17T18:29:41;84309.27;;;31.94;24.11
73974;BME280;62336;-26.094;27.994;2022-12-17T18:32:06;84309.87;;;31.38;24.55
73974;BME280;62336;-26.094;27.994;2022-12-17T18:34:32;84309.80;;;31.26;24.29
73974;BME280;62336;-26.094;27.994;2022-12-17T18:36:58;84321.69;;;31.30;24.09
73974;BME280;62336;-26.094;27.994;2022-12-17T18:39:24;84337.02;;;31.08;23.94
73974;BME280;62336;-26.094;27.994;2022-12-17T18:41:50;84328.83;;;30.33;24.90
73974;BME280;62336;-26.094;27.994;2022-12-17T18:44:16;84330.19;;;30.29;25.08
73974;BME280;62336;-26.094;27.994;2022-12-17T18:46:42;84324.82;;;30.60;24.47
73974;BME280;62336;-26.094;27.994;2022-12-17T18:49:09;84330.43;;;30.88;24.29